sensor_id;sensor_type;location;lat;lon;timestamp;P1;durP1;ratioP1;P2;durP2;ratioP2
37065;SDS011;22981;43.080;25.550;2024-03-08T00:01:46;2.77;;;2.10;;
37065;SDS011;22981;43.080;25.550;2024-03-08T00:04:13;4.03;;;2.30;;
37065;SDS011;22981;43.080;25.550;2024-03-08T00:06:41;3.58;;;2.12;;
37065;SDS011;22981;43.080;25.550;2024-03-08T00:09:10;2.55;;;1.87;;
37065;SDS011;22981;43.080;25.550;2024-03-08T00:11:39;2.02;;;1.80;;
37065;SDS011;22981;43.080;25.550;2024-03-08T00:14:06;2.52;;;1.90;;
37065;SDS011;22981;43.080;25.550;2024-03-08T00:16:34;3.00;;;2.70;;
37065;SDS011;22981;43.080;25.550;2024-03-08T00:19:02;2.80;;;2.40;;
37065;SDS011;22981;43.080;25.550;2024-03-08T00:21:30;2.58;;;1.80;;
37065;SDS011;22981;43.080;25.550;2024-03-08T00:23:57;1.92;;;1.35;;
37065;SDS011;22981;43.080;25.550;2024-03-08T00:26:25;2.60;;;1.17;;
37065;SDS011;22981;43.080;25.550;2024-03-08T00:28:54;2.85;;;2.05;;
37065;SDS011;22981;43.080;25.550;2024-03-08T00:31:22;5.58;;;2.85;;
37065;SDS011;22981;43.080;25.550;2024-03-08T00:33:50;6.33;;;3.35;;
37065;SDS011;22981;43.080;25.550;2024-03-08T00:36:18;9.53;;;4.30;;
37065;SDS011;22981;43.080;25.550;2024-03-08T00:38:46;4.22;;;2.30;;
37065;SDS011;22981;43.080;25.550;2024-03-08T00:41:13;4.00;;;2.50;;
37065;SDS011;22981;43.080;25.550;2024-03-08T00:43:41;2.10;;;1.20;;
37065;SDS011;22981;43.080;25.550;2024-03-08T00:46:08;1.72;;;1.40;;
37065;SDS011;22981;43.080;25.550;2024-03-08T00:48:36;1.47;;;1.30;;
37065;SDS011;22981;43.080;25.550;2024-03-08T00:51:03;1.17;;;1.07;;
37065;SDS011;22981;43.080;25.550;2024-03-08T00:53:31;1.50;;;1.00;;
37065;SDS011;22981;43.080;25.550;2024-03-08T00:55:59;2.00;;;0.80;;
37065;SDS011;22981;43.080;25.550;2024-03-08T00:58:26;1.15;;;0.90;;
37065;SDS011;22981;43.080;25.550;2024-03-08T01:00:54;2.20;;;2.00;;
37065;SDS011;22981;43.080;25.550;2024-03-08T01:03:22;4.58;;;3.35;;
37065;SDS011;22981;43.080;25.550;2024-03-08T01:05:50;4.33;;;3.42;;
37065;SDS011;22981;43.080;25.550;2024-03-08T01:08:18;3.50;;;3.15;;
37065;SDS011;22981;43.080;25.550;2024-03-08T01:10:45;2.90;;;2.30;;
37065;SDS011;22981;43.080;25.550;2024-03-08T01:13:13;3.65;;;2.83;;
37065;SDS011;22981;43.080;25.550;2024-03-08T01:15:40;3.83;;;3.08;;
37065;SDS011;22981;43.080;25.550;2024-03-08T01:18:08;4.45;;;2.95;;
37065;SDS011;22981;43.080;25.550;2024-03-08T01:20:35;5.10;;;2.62;;
37065;SDS011;22981;43.080;25.550;2024-03-08T01:23:03;6.15;;;3.40;;
37065;SDS011;22981;43.080;25.550;2024-03-08T01:25:35;4.42;;;2.50;;
37065;SDS011;22981;43.080;25.550;2024-03-08T01:28:03;3.02;;;2.40;;
37065;SDS011;22981;43.080;25.550;2024-03-08T01:30:31;2.80;;;2.50;;
37065;SDS011;22981;43.080;25.550;2024-03-08T01:33:00;4.00;;;2.27;;
37065;SDS011;22981;43.080;25.550;2024-03-08T01:35:28;2.87;;;2.40;;
37065;SDS011;22981;43.080;25.550;2024-03-08T01:37:56;3.77;;;2.90;;
37065;SDS011;22981;43.080;25.550;2024-03-08T01:40:24;6.15;;;2.85;;
37065;SDS011;22981;43.080;25.550;2024-03-08T01:42:51;3.45;;;3.12;;
37065;SDS011;22981;43.080;25.550;2024-03-08T01:45:19;4.80;;;2.87;;
37065;SDS011;22981;43.080;25.550;2024-03-08T01:47:47;4.78;;;3.00;;
37065;SDS011;22981;43.080;25.550;2024-03-08T01:50:14;2.47;;;2.27;;
37065;SDS011;22981;43.080;25.550;2024-03-08T01:52:42;1.72;;;1.62;;
37065;SDS011;22981;43.080;25.550;2024-03-08T01:55:11;2.40;;;2.20;;
37065;SDS011;22981;43.080;25.550;2024-03-08T01:57:40;2.42;;;2.22;;
37065;SDS011;22981;43.080;25.550;2024-03-08T02:00:08;2.72;;;2.47;;
37065;SDS011;22981;43.080;25.550;2024-03-08T02:02:36;4.60;;;2.98;;
37065;SDS011;22981;43.080;25.550;2024-03-08T02:05:06;2.75;;;2.45;;
37065;SDS011;22981;43.080;25.550;2024-03-08T02:07:34;4.75;;;3.80;;
37065;SDS011;22981;43.080;25.550;2024-03-08T02:10:01;13.10;;;9.23;;
37065;SDS011;22981;43.080;25.550;2024-03-08T02:12:29;18.62;;;12.35;;
37065;SDS011;22981;43.080;25.550;2024-03-08T02:14:57;22.17;;;16.25;;
37065;SDS011;22981;43.080;25.550;2024-03-08T02:17:24;26.17;;;18.25;;
37065;SDS011;22981;43.080;25.550;2024-03-08T06:17:44;22.30;;;17.40;;
37065;SDS011;22981;43.080;25.550;2024-03-08T06:20:12;24.10;;;18.32;;
37065;SDS011;22981;43.080;25.550;2024-03-08T06:22:41;36.10;;;24.82;;
37065;SDS011;22981;43.080;25.550;2024-03-08T06:25:10;35.58;;;25.17;;
37065;SDS011;22981;43.080;25.550;2024-03-08T06:27:40;33.73;;;26.42;;
37065;SDS011;22981;43.080;25.550;2024-03-08T06:30:09;27.98;;;19.82;;
37065;SDS011;22981;43.080;25.550;2024-03-08T06:32:37;32.13;;;24.85;;
37065;SDS011;22981;43.080;25.550;2024-03-08T06:35:06;30.97;;;21.48;;
37065;SDS011;22981;43.080;25.550;2024-03-08T06:37:38;31.77;;;24.25;;
37065;SDS011;22981;43.080;25.550;2024-03-08T06:40:07;30.05;;;22.20;;
37065;SDS011;22981;43.080;25.550;2024-03-08T06:42:37;29.20;;;19.60;;
37065;SDS011;22981;43.080;25.550;2024-03-08T06:45:04;24.00;;;18.90;;
37065;SDS011;22981;43.080;25.550;2024-03-08T06:47:34;29.12;;;20.12;;
37065;SDS011;22981;43.080;25.550;2024-03-08T06:50:02;27.25;;;18.67;;
37065;SDS011;22981;43.080;25.550;2024-03-08T06:52:31;25.68;;;19.05;;
37065;SDS011;22981;43.080;25.550;2024-03-08T06:54:58;25.25;;;19.57;;
37065;SDS011;22981;43.080;25.550;2024-03-08T06:57:27;29.48;;;20.12;;
37065;SDS011;22981;43.080;25.550;2024-03-08T06:59:55;26.20;;;19.35;;
37065;SDS011;22981;43.080;25.550;2024-03-08T07:04:48;26.27;;;18.73;;
37065;SDS011;22981;43.080;25.550;2024-03-08T07:07:16;26.82;;;19.50;;
37065;SDS011;22981;43.080;25.550;2024-03-08T07:09:45;25.12;;;18.67;;
37065;SDS011;22981;43.080;25.550;2024-03-08T07:12:14;24.10;;;18.52;;
37065;SDS011;22981;43.080;25.550;2024-03-08T07:14:43;26.95;;;20.45;;
37065;SDS011;22981;43.080;25.550;2024-03-08T07:17:11;23.65;;;18.42;;
37065;SDS011;22981;43.080;25.550;2024-03-08T07:19:39;45.05;;;29.37;;
37065;SDS011;22981;43.080;25.550;2024-03-08T07:22:07;44.13;;;27.15;;
37065;SDS011;22981;43.080;25.550;2024-03-08T07:24:35;29.95;;;22.77;;
37065;SDS011;22981;43.080;25.550;2024-03-08T07:27:04;33.45;;;23.55;;
37065;SDS011;22981;43.080;25.550;2024-03-08T07:29:32;31.07;;;22.62;;
37065;SDS011;22981;43.080;25.550;2024-03-08T07:32:00;33.88;;;24.65;;
37065;SDS011;22981;43.080;25.550;2024-03-08T07:34:30;36.73;;;25.15;;
37065;SDS011;22981;43.080;25.550;2024-03-08T07:36:57;34.45;;;26.42;;
37065;SDS011;22981;43.080;25.550;2024-03-08T07:39:25;33.65;;;25.20;;
37065;SDS011;22981;43.080;25.550;2024-03-08T07:41:52;40.80;;;28.85;;
37065;SDS011;22981;43.080;25.550;2024-03-08T07:44:20;42.35;;;28.07;;
37065;SDS011;22981;43.080;25.550;2024-03-08T07:46:49;37.85;;;24.98;;
37065;SDS011;22981;43.080;25.550;2024-03-08T07:49:16;34.73;;;23.02;;
37065;SDS011;22981;43.080;25.550;2024-03-08T07:51:44;49.73;;;26.87;;
37065;SDS011;22981;43.080;25.550;2024-03-08T07:54:11;40.40;;;28.42;;
37065;SDS011;22981;43.080;25.550;2024-03-08T07:56:39;40.95;;;27.22;;
37065;SDS011;22981;43.080;25.550;2024-03-08T07:59:08;38.00;;;26.60;;
37065;SDS011;22981;43.080;25.550;2024-03-08T08:01:37;37.28;;;24.05;;
37065;SDS011;22981;43.080;25.550;2024-03-08T08:04:05;35.68;;;23.38;;
37065;SDS011;22981;43.080;25.550;2024-03-08T08:06:34;33.70;;;24.32;;
37065;SDS011;22981;43.080;25.550;2024-03-08T08:09:03;37.25;;;22.00;;
37065;SDS011;22981;43.080;25.550;2024-03-08T08:11:31;36.20;;;23.05;;
37065;SDS011;22981;43.080;25.550;2024-03-08T08:13:59;34.85;;;21.37;;
37065;SDS011;22981;43.080;25.550;2024-03-08T08:16:27;37.28;;;20.62;;
37065;SDS011;22981;43.080;25.550;2024-03-08T08:18:54;30.77;;;21.52;;
37065;SDS011;22981;43.080;25.550;2024-03-08T08:21:22;36.13;;;23.62;;
37065;SDS011;22981;43.080;25.550;2024-03-08T08:23:51;37.08;;;20.72;;
37065;SDS011;22981;43.080;25.550;2024-03-08T08:26:20;28.57;;;20.40;;
37065;SDS011;22981;43.080;25.550;2024-03-08T08:28:48;48.98;;;29.65;;
37065;SDS011;22981;43.080;25.550;2024-03-08T08:31:15;86.15;;;41.95;;
37065;SDS011;22981;43.080;25.550;2024-03-08T08:33:43;80.80;;;42.33;;
37065;SDS011;22981;43.080;25.550;2024-03-08T08:36:10;65.60;;;38.95;;
37065;SDS011;22981;43.080;25.550;2024-03-08T08:38:39;56.50;;;32.30;;
37065;SDS011;22981;43.080;25.550;2024-03-08T08:41:09;29.27;;;20.82;;
37065;SDS011;22981;43.080;25.550;2024-03-08T08:43:37;24.37;;;17.23;;
37065;SDS011;22981;43.080;25.550;2024-03-08T08:46:05;26.90;;;17.77;;
37065;SDS011;22981;43.080;25.550;2024-03-08T08:48:32;26.93;;;16.97;;
37065;SDS011;22981;43.080;25.550;2024-03-08T08:51:00;20.50;;;15.05;;
37065;SDS011;22981;43.080;25.550;2024-03-08T08:53:33;19.50;;;14.15;;
37065;SDS011;22981;43.080;25.550;2024-03-08T08:55:57;20.15;;;14.18;;
37065;SDS011;22981;43.080;25.550;2024-03-08T08:58:26;23.55;;;17.45;;
37065;SDS011;22981;43.080;25.550;2024-03-08T09:00:54;22.77;;;15.90;;
37065;SDS011;22981;43.080;25.550;2024-03-08T09:03:21;21.90;;;14.70;;
37065;SDS011;22981;43.080;25.550;2024-03-08T09:05:49;21.23;;;15.63;;
37065;SDS011;22981;43.080;25.550;2024-03-08T09:08:22;23.95;;;18.35;;
37065;SDS011;22981;43.080;25.550;2024-03-08T09:10:46;19.48;;;14.87;;
37065;SDS011;22981;43.080;25.550;2024-03-08T09:13:17;18.37;;;14.25;;
37065;SDS011;22981;43.080;25.550;2024-03-08T09:16:00;18.95;;;15.00;;
37065;SDS011;22981;43.080;25.550;2024-03-08T09:18:30;19.35;;;14.13;;
37065;SDS011;22981;43.080;25.550;2024-03-08T09:20:58;19.65;;;15.00;;
37065;SDS011;22981;43.080;25.550;2024-03-08T09:23:26;24.85;;;16.95;;
37065;SDS011;22981;43.080;25.550;2024-03-08T09:25:58;29.07;;;18.55;;
37065;SDS011;22981;43.080;25.550;2024-03-08T09:28:27;22.48;;;16.15;;
37065;SDS011;22981;43.080;25.550;2024-03-08T09:30:54;21.42;;;15.88;;
37065;SDS011;22981;43.080;25.550;2024-03-08T09:33:23;18.17;;;13.55;;
37065;SDS011;22981;43.080;25.550;2024-03-08T09:35:52;17.50;;;13.25;;
37065;SDS011;22981;43.080;25.550;2024-03-08T09:38:20;18.25;;;14.15;;
37065;SDS011;22981;43.080;25.550;2024-03-08T09:40:47;21.57;;;16.93;;
37065;SDS011;22981;43.080;25.550;2024-03-08T09:43:15;21.05;;;16.10;;
37065;SDS011;22981;43.080;25.550;2024-03-08T09:45:43;22.80;;;16.73;;
37065;SDS011;22981;43.080;25.550;2024-03-08T09:48:16;21.82;;;16.52;;
37065;SDS011;22981;43.080;25.550;2024-03-08T09:50:46;22.17;;;17.00;;
37065;SDS011;22981;43.080;25.550;2024-03-08T09:53:14;21.75;;;16.15;;
37065;SDS011;22981;43.080;25.550;2024-03-08T09:55:42;23.15;;;15.65;;
37065;SDS011;22981;43.080;25.550;2024-03-08T09:58:16;20.05;;;16.17;;
37065;SDS011;22981;43.080;25.550;2024-03-08T10:00:45;25.12;;;18.42;;
37065;SDS011;22981;43.080;25.550;2024-03-08T10:03:12;24.37;;;18.40;;
37065;SDS011;22981;43.080;25.550;2024-03-08T10:05:43;28.07;;;19.10;;
37065;SDS011;22981;43.080;25.550;2024-03-08T10:08:12;22.85;;;18.30;;
37065;SDS011;22981;43.080;25.550;2024-03-08T10:10:39;22.30;;;16.77;;
37065;SDS011;22981;43.080;25.550;2024-03-08T10:13:07;22.58;;;17.55;;
37065;SDS011;22981;43.080;25.550;2024-03-08T10:15:38;22.42;;;17.90;;
37065;SDS011;22981;43.080;25.550;2024-03-08T10:18:06;21.07;;;16.23;;
37065;SDS011;22981;43.080;25.550;2024-03-08T10:20:36;23.50;;;16.95;;
37065;SDS011;22981;43.080;25.550;2024-03-08T10:23:03;23.73;;;17.67;;
37065;SDS011;22981;43.080;25.550;2024-03-08T10:25:31;25.52;;;19.10;;
37065;SDS011;22981;43.080;25.550;2024-03-08T10:27:59;24.32;;;18.90;;
37065;SDS011;22981;43.080;25.550;2024-03-08T10:30:29;26.48;;;19.15;;
37065;SDS011;22981;43.080;25.550;2024-03-08T10:32:58;23.92;;;18.27;;
37065;SDS011;22981;43.080;25.550;2024-03-08T10:35:25;23.40;;;18.30;;
37065;SDS011;22981;43.080;25.550;2024-03-08T10:37:53;24.52;;;18.42;;
37065;SDS011;22981;43.080;25.550;2024-03-08T10:40:27;21.85;;;17.17;;
37065;SDS011;22981;43.080;25.550;2024-03-08T10:42:56;21.02;;;15.78;;
37065;SDS011;22981;43.080;25.550;2024-03-08T10:48:20;18.57;;;14.43;;
37065;SDS011;22981;43.080;25.550;2024-03-08T10:50:48;18.82;;;15.25;;
37065;SDS011;22981;43.080;25.550;2024-03-08T10:53:18;23.22;;;18.32;;
37065;SDS011;22981;43.080;25.550;2024-03-08T10:55:47;22.05;;;16.93;;
37065;SDS011;22981;43.080;25.550;2024-03-08T10:58:19;16.17;;;12.27;;
37065;SDS011;22981;43.080;25.550;2024-03-08T11:00:49;28.83;;;22.75;;
37065;SDS011;22981;43.080;25.550;2024-03-08T11:06:13;21.68;;;17.87;;
37065;SDS011;22981;43.080;25.550;2024-03-08T11:08:44;23.75;;;18.80;;
37065;SDS011;22981;43.080;25.550;2024-03-08T11:11:28;25.20;;;18.55;;
37065;SDS011;22981;43.080;25.550;2024-03-08T11:13:58;22.75;;;17.30;;
37065;SDS011;22981;43.080;25.550;2024-03-08T11:18:58;23.55;;;18.70;;
37065;SDS011;22981;43.080;25.550;2024-03-08T11:21:35;22.85;;;16.15;;
37065;SDS011;22981;43.080;25.550;2024-03-08T11:24:06;23.35;;;17.77;;
37065;SDS011;22981;43.080;25.550;2024-03-08T11:26:37;26.15;;;17.92;;
37065;SDS011;22981;43.080;25.550;2024-03-08T11:32:08;25.37;;;18.48;;
37065;SDS011;22981;43.080;25.550;2024-03-08T11:34:36;22.80;;;18.07;;
37065;SDS011;22981;43.080;25.550;2024-03-08T11:37:10;27.65;;;22.80;;
37065;SDS011;22981;43.080;25.550;2024-03-08T11:39:41;24.20;;;17.85;;
37065;SDS011;22981;43.080;25.550;2024-03-08T11:42:15;21.82;;;16.32;;
37065;SDS011;22981;43.080;25.550;2024-03-08T11:44:44;26.20;;;18.57;;
37065;SDS011;22981;43.080;25.550;2024-03-08T11:47:16;27.02;;;18.87;;
37065;SDS011;22981;43.080;25.550;2024-03-08T11:49:44;20.80;;;16.65;;
37065;SDS011;22981;43.080;25.550;2024-03-08T11:52:17;23.62;;;17.60;;
37065;SDS011;22981;43.080;25.550;2024-03-08T11:54:51;13.93;;;11.03;;
37065;SDS011;22981;43.080;25.550;2024-03-08T11:57:22;24.80;;;20.35;;
37065;SDS011;22981;43.080;25.550;2024-03-08T11:59:51;31.12;;;22.55;;
37065;SDS011;22981;43.080;25.550;2024-03-08T12:02:19;25.82;;;19.15;;
37065;SDS011;22981;43.080;25.550;2024-03-08T12:04:46;25.95;;;19.10;;
37065;SDS011;22981;43.080;25.550;2024-03-08T12:07:15;27.95;;;21.00;;
37065;SDS011;22981;43.080;25.550;2024-03-08T12:09:44;22.93;;;17.98;;
37065;SDS011;22981;43.080;25.550;2024-03-08T12:12:13;25.48;;;18.65;;
37065;SDS011;22981;43.080;25.550;2024-03-08T12:14:43;22.62;;;18.12;;
37065;SDS011;22981;43.080;25.550;2024-03-08T12:17:10;27.77;;;20.27;;
37065;SDS011;22981;43.080;25.550;2024-03-08T12:19:39;23.75;;;18.87;;
37065;SDS011;22981;43.080;25.550;2024-03-08T12:22:08;26.90;;;19.92;;
37065;SDS011;22981;43.080;25.550;2024-03-08T12:24:36;24.27;;;18.62;;
37065;SDS011;22981;43.080;25.550;2024-03-08T12:27:17;23.75;;;18.65;;
37065;SDS011;22981;43.080;25.550;2024-03-08T12:29:34;27.02;;;18.50;;
37065;SDS011;22981;43.080;25.550;2024-03-08T12:32:05;27.32;;;20.52;;
37065;SDS011;22981;43.080;25.550;2024-03-08T12:34:33;27.85;;;20.12;;
37065;SDS011;22981;43.080;25.550;2024-03-08T12:37:00;28.17;;;19.90;;
37065;SDS011;22981;43.080;25.550;2024-03-08T12:39:29;29.32;;;21.70;;
37065;SDS011;22981;43.080;25.550;2024-03-08T12:41:58;29.65;;;22.07;;
37065;SDS011;22981;43.080;25.550;2024-03-08T12:44:26;29.07;;;20.97;;
37065;SDS011;22981;43.080;25.550;2024-03-08T12:46:54;29.40;;;21.97;;
37065;SDS011;22981;43.080;25.550;2024-03-08T12:49:23;27.27;;;20.85;;
37065;SDS011;22981;43.080;25.550;2024-03-08T12:51:52;30.40;;;19.40;;
37065;SDS011;22981;43.080;25.550;2024-03-08T12:54:20;25.27;;;18.55;;
37065;SDS011;22981;43.080;25.550;2024-03-08T12:56:49;23.85;;;17.65;;
37065;SDS011;22981;43.080;25.550;2024-03-08T12:59:18;24.40;;;18.32;;
37065;SDS011;22981;43.080;25.550;2024-03-08T13:01:47;23.35;;;17.17;;
37065;SDS011;22981;43.080;25.550;2024-03-08T13:04:16;27.70;;;19.77;;
37065;SDS011;22981;43.080;25.550;2024-03-08T13:06:44;25.90;;;19.82;;
37065;SDS011;22981;43.080;25.550;2024-03-08T13:09:14;24.95;;;18.12;;
37065;SDS011;22981;43.080;25.550;2024-03-08T13:11:41;28.73;;;20.95;;
37065;SDS011;22981;43.080;25.550;2024-03-08T13:14:09;28.87;;;20.50;;
37065;SDS011;22981;43.080;25.550;2024-03-08T13:16:36;30.17;;;21.45;;
37065;SDS011;22981;43.080;25.550;2024-03-08T13:19:04;30.45;;;22.22;;
37065;SDS011;22981;43.080;25.550;2024-03-08T13:21:31;31.00;;;20.10;;
37065;SDS011;22981;43.080;25.550;2024-03-08T13:24:01;33.63;;;23.50;;
37065;SDS011;22981;43.080;25.550;2024-03-08T13:26:28;33.15;;;23.92;;
37065;SDS011;22981;43.080;25.550;2024-03-08T13:28:58;35.92;;;25.17;;
37065;SDS011;22981;43.080;25.550;2024-03-08T13:31:25;41.23;;;25.60;;
37065;SDS011;22981;43.080;25.550;2024-03-08T13:33:53;36.70;;;24.80;;
37065;SDS011;22981;43.080;25.550;2024-03-08T13:36:23;34.35;;;23.05;;
37065;SDS011;22981;43.080;25.550;2024-03-08T13:38:52;34.05;;;23.10;;
37065;SDS011;22981;43.080;25.550;2024-03-08T13:41:19;35.63;;;24.25;;
37065;SDS011;22981;43.080;25.550;2024-03-08T13:43:49;36.55;;;25.08;;
37065;SDS011;22981;43.080;25.550;2024-03-08T13:46:17;34.15;;;24.60;;
37065;SDS011;22981;43.080;25.550;2024-03-08T13:48:44;38.70;;;26.23;;
37065;SDS011;22981;43.080;25.550;2024-03-08T13:51:13;38.60;;;26.73;;
37065;SDS011;22981;43.080;25.550;2024-03-08T13:53:42;41.60;;;26.35;;
37065;SDS011;22981;43.080;25.550;2024-03-08T13:56:10;44.03;;;29.30;;
37065;SDS011;22981;43.080;25.550;2024-03-08T13:58:38;53.65;;;34.85;;
37065;SDS011;22981;43.080;25.550;2024-03-08T14:01:06;46.90;;;29.65;;
37065;SDS011;22981;43.080;25.550;2024-03-08T14:03:35;44.18;;;30.32;;
37065;SDS011;22981;43.080;25.550;2024-03-08T14:06:03;43.15;;;27.42;;
37065;SDS011;22981;43.080;25.550;2024-03-08T14:08:32;38.05;;;25.12;;
37065;SDS011;22981;43.080;25.550;2024-03-08T14:10:59;39.95;;;25.57;;
37065;SDS011;22981;43.080;25.550;2024-03-08T14:13:29;37.90;;;25.52;;
37065;SDS011;22981;43.080;25.550;2024-03-08T14:15:56;40.38;;;25.95;;
37065;SDS011;22981;43.080;25.550;2024-03-08T14:18:24;35.50;;;24.87;;
37065;SDS011;22981;43.080;25.550;2024-03-08T14:20:51;38.08;;;24.85;;
37065;SDS011;22981;43.080;25.550;2024-03-08T14:23:19;39.53;;;24.95;;
37065;SDS011;22981;43.080;25.550;2024-03-08T14:25:49;38.65;;;25.20;;
37065;SDS011;22981;43.080;25.550;2024-03-08T14:28:17;39.48;;;25.12;;
37065;SDS011;22981;43.080;25.550;2024-03-08T14:30:45;40.35;;;26.23;;
37065;SDS011;22981;43.080;25.550;2024-03-08T14:33:12;38.00;;;26.33;;
37065;SDS011;22981;43.080;25.550;2024-03-08T14:35:40;41.92;;;26.82;;
37065;SDS011;22981;43.080;25.550;2024-03-08T14:38:09;41.75;;;25.62;;
37065;SDS011;22981;43.080;25.550;2024-03-08T14:40:38;40.58;;;27.02;;
37065;SDS011;22981;43.080;25.550;2024-03-08T14:43:06;43.55;;;26.97;;
37065;SDS011;22981;43.080;25.550;2024-03-08T14:45:33;42.45;;;28.87;;
37065;SDS011;22981;43.080;25.550;2024-03-08T14:48:02;43.98;;;28.23;;
37065;SDS011;22981;43.080;25.550;2024-03-08T14:50:30;41.80;;;28.27;;
37065;SDS011;22981;43.080;25.550;2024-03-08T14:52:58;40.03;;;27.35;;
37065;SDS011;22981;43.080;25.550;2024-03-08T14:55:26;44.10;;;29.07;;
37065;SDS011;22981;43.080;25.550;2024-03-08T14:57:55;43.60;;;29.12;;
37065;SDS011;22981;43.080;25.550;2024-03-08T15:00:23;44.93;;;28.35;;
37065;SDS011;22981;43.080;25.550;2024-03-08T15:02:55;45.58;;;29.15;;
37065;SDS011;22981;43.080;25.550;2024-03-08T15:05:23;294.00;;;158.52;;
37065;SDS011;22981;43.080;25.550;2024-03-08T15:07:55;134.45;;;87.55;;
37065;SDS011;22981;43.080;25.550;2024-03-08T15:10:24;65.05;;;41.98;;
37065;SDS011;22981;43.080;25.550;2024-03-08T15:12:52;46.75;;;31.95;;
37065;SDS011;22981;43.080;25.550;2024-03-08T15:15:21;46.65;;;31.00;;
37065;SDS011;22981;43.080;25.550;2024-03-08T15:17:50;45.60;;;29.25;;
37065;SDS011;22981;43.080;25.550;2024-03-08T15:20:19;48.60;;;30.92;;
37065;SDS011;22981;43.080;25.550;2024-03-08T15:22:52;46.18;;;30.45;;
37065;SDS011;22981;43.080;25.550;2024-03-08T15:25:20;49.53;;;31.07;;
37065;SDS011;22981;43.080;25.550;2024-03-08T15:27:50;46.23;;;30.15;;
37065;SDS011;22981;43.080;25.550;2024-03-08T15:30:19;43.28;;;28.87;;
37065;SDS011;22981;43.080;25.550;2024-03-08T15:32:55;48.40;;;30.77;;
37065;SDS011;22981;43.080;25.550;2024-03-08T15:35:25;44.60;;;28.05;;
37065;SDS011;22981;43.080;25.550;2024-03-08T15:37:53;47.48;;;28.70;;
37065;SDS011;22981;43.080;25.550;2024-03-08T15:40:24;41.00;;;28.73;;
37065;SDS011;22981;43.080;25.550;2024-03-08T15:45:22;40.05;;;28.12;;
37065;SDS011;22981;43.080;25.550;2024-03-08T15:47:52;43.25;;;29.12;;
37065;SDS011;22981;43.080;25.550;2024-03-08T15:50:19;46.37;;;29.52;;
37065;SDS011;22981;43.080;25.550;2024-03-08T15:52:49;45.52;;;29.60;;
37065;SDS011;22981;43.080;25.550;2024-03-08T15:55:19;44.38;;;29.65;;
37065;SDS011;22981;43.080;25.550;2024-03-08T15:57:50;44.45;;;28.50;;
37065;SDS011;22981;43.080;25.550;2024-03-08T16:00:19;43.65;;;29.42;;
37065;SDS011;22981;43.080;25.550;2024-03-08T16:03:02;30.57;;;20.00;;
37065;SDS011;22981;43.080;25.550;2024-03-08T16:05:35;45.85;;;29.77;;
37065;SDS011;22981;43.080;25.550;2024-03-08T16:08:04;48.02;;;28.10;;
37065;SDS011;22981;43.080;25.550;2024-03-08T16:10:33;42.27;;;28.10;;
37065;SDS011;22981;43.080;25.550;2024-03-08T16:13:01;49.65;;;30.57;;
37065;SDS011;22981;43.080;25.550;2024-03-08T16:15:30;50.15;;;35.48;;
37065;SDS011;22981;43.080;25.550;2024-03-08T16:17:57;53.87;;;34.10;;
37065;SDS011;22981;43.080;25.550;2024-03-08T16:20:25;54.50;;;35.52;;
37065;SDS011;22981;43.080;25.550;2024-03-08T16:22:52;48.55;;;32.00;;
37065;SDS011;22981;43.080;25.550;2024-03-08T16:25:20;46.95;;;30.72;;
37065;SDS011;22981;43.080;25.550;2024-03-08T16:27:48;43.35;;;28.90;;
37065;SDS011;22981;43.080;25.550;2024-03-08T16:30:15;42.53;;;28.17;;
37065;SDS011;22981;43.080;25.550;2024-03-08T16:32:45;49.55;;;29.87;;
37065;SDS011;22981;43.080;25.550;2024-03-08T16:35:14;48.92;;;30.30;;
37065;SDS011;22981;43.080;25.550;2024-03-08T16:37:42;47.30;;;28.62;;
37065;SDS011;22981;43.080;25.550;2024-03-08T16:40:10;45.73;;;29.23;;
37065;SDS011;22981;43.080;25.550;2024-03-08T16:42:45;47.03;;;29.67;;
37065;SDS011;22981;43.080;25.550;2024-03-08T16:45:18;45.12;;;28.05;;
37065;SDS011;22981;43.080;25.550;2024-03-08T16:47:46;45.30;;;29.75;;
37065;SDS011;22981;43.080;25.550;2024-03-08T16:50:16;51.13;;;30.80;;
37065;SDS011;22981;43.080;25.550;2024-03-08T16:52:44;52.23;;;32.33;;
37065;SDS011;22981;43.080;25.550;2024-03-08T16:55:12;46.18;;;28.60;;
37065;SDS011;22981;43.080;25.550;2024-03-08T16:57:43;46.58;;;29.65;;
37065;SDS011;22981;43.080;25.550;2024-03-08T17:00:12;47.17;;;30.27;;
37065;SDS011;22981;43.080;25.550;2024-03-08T17:02:45;53.38;;;31.73;;
37065;SDS011;22981;43.080;25.550;2024-03-08T17:05:14;48.17;;;30.25;;
37065;SDS011;22981;43.080;25.550;2024-03-08T17:07:46;47.17;;;30.52;;
37065;SDS011;22981;43.080;25.550;2024-03-08T17:10:21;55.52;;;33.15;;
37065;SDS011;22981;43.080;25.550;2024-03-08T17:12:50;53.00;;;32.00;;
37065;SDS011;22981;43.080;25.550;2024-03-08T17:15:20;47.58;;;31.85;;
37065;SDS011;22981;43.080;25.550;2024-03-08T17:17:49;52.88;;;31.62;;
37065;SDS011;22981;43.080;25.550;2024-03-08T17:20:21;50.45;;;30.57;;
37065;SDS011;22981;43.080;25.550;2024-03-08T17:22:50;47.60;;;31.40;;
37065;SDS011;22981;43.080;25.550;2024-03-08T17:25:24;54.30;;;29.92;;
37065;SDS011;22981;43.080;25.550;2024-03-08T17:27:53;47.98;;;30.57;;
37065;SDS011;22981;43.080;25.550;2024-03-08T17:30:22;49.75;;;31.23;;
37065;SDS011;22981;43.080;25.550;2024-03-08T17:32:54;50.23;;;31.53;;
37065;SDS011;22981;43.080;25.550;2024-03-08T17:35:26;48.23;;;30.40;;
37065;SDS011;22981;43.080;25.550;2024-03-08T17:37:56;49.90;;;31.65;;
37065;SDS011;22981;43.080;25.550;2024-03-08T17:40:25;50.30;;;31.52;;
37065;SDS011;22981;43.080;25.550;2024-03-08T17:42:57;52.43;;;33.00;;
37065;SDS011;22981;43.080;25.550;2024-03-08T17:45:26;53.33;;;33.42;;
37065;SDS011;22981;43.080;25.550;2024-03-08T17:47:54;59.03;;;35.60;;
37065;SDS011;22981;43.080;25.550;2024-03-08T17:50:21;59.00;;;38.05;;
37065;SDS011;22981;43.080;25.550;2024-03-08T17:52:50;58.78;;;36.23;;
37065;SDS011;22981;43.080;25.550;2024-03-08T17:55:20;60.00;;;35.98;;
37065;SDS011;22981;43.080;25.550;2024-03-08T17:57:50;53.55;;;34.85;;
37065;SDS011;22981;43.080;25.550;2024-03-08T18:00:19;57.90;;;35.88;;
37065;SDS011;22981;43.080;25.550;2024-03-08T18:02:50;61.30;;;34.53;;
37065;SDS011;22981;43.080;25.550;2024-03-08T18:05:20;62.55;;;33.92;;
37065;SDS011;22981;43.080;25.550;2024-03-08T18:07:53;55.20;;;31.85;;
37065;SDS011;22981;43.080;25.550;2024-03-08T18:10:22;63.80;;;36.85;;
37065;SDS011;22981;43.080;25.550;2024-03-08T18:12:51;64.12;;;35.98;;
37065;SDS011;22981;43.080;25.550;2024-03-08T18:15:28;62.00;;;35.30;;
37065;SDS011;22981;43.080;25.550;2024-03-08T18:17:57;58.75;;;33.30;;
37065;SDS011;22981;43.080;25.550;2024-03-08T18:20:31;59.80;;;33.45;;
37065;SDS011;22981;43.080;25.550;2024-03-08T18:23:00;55.48;;;32.83;;
37065;SDS011;22981;43.080;25.550;2024-03-08T18:25:29;60.83;;;32.48;;
37065;SDS011;22981;43.080;25.550;2024-03-08T18:27:59;59.67;;;35.40;;
37065;SDS011;22981;43.080;25.550;2024-03-08T18:30:35;55.60;;;34.35;;
37065;SDS011;22981;43.080;25.550;2024-03-08T18:33:02;50.80;;;32.45;;
37065;SDS011;22981;43.080;25.550;2024-03-08T18:35:30;57.05;;;35.15;;
37065;SDS011;22981;43.080;25.550;2024-03-08T18:37:58;56.45;;;36.40;;